CDT,Max TemperatureF,Mean TemperatureF,Min TemperatureF,Max Dew PointF,MeanDew PointF,Min DewpointF,Max Humidity, Mean Humidity, Min Humidity, Max Sea Level PressureIn, Mean Sea Level PressureIn, Min Sea Level PressureIn, Max VisibilityMiles, Mean VisibilityMiles, Min VisibilityMiles, Max Wind SpeedMPH, Mean Wind SpeedMPH, Max Gust SpeedMPH,PrecipitationIn, CloudCover, Events, WindDirDegrees
2013-5-1,82,70,57,63,55,48,77,61,39,30.08,29.96,29.88,10,10,10,18,8,24,0.00,1,,140
2013-5-2,62,48,33,55,43,30,88,81,72,30.25,30.18,30.05,10,9,2,16,8,24,0.32,7,,348
2013-5-3,46,40,33,36,31,27,87,77,49,30.23,30.06,29.93,10,8,1,18,11,25,0.21,8,,333
2013-5-4,44,40,35,36,34,30,93,80,66,29.99,29.89,29.83,10,9,4,13,8,16,0.20,7,,323
2013-5-5,57,46,35,46,40,34,93,75,55,30.08,30.03,29.98,10,10,5,14,7,20,0.00,5,,334
2013-5-6,62,55,48,52,47,45,93,79,59,30.10,30.05,30.01,10,8,2,12,7,16,0.00,6,,348
2013-5-7,75,60,44,54,48,41,94,66,36,30.10,30.04,29.99,10,8,0,8,1,,0.00,1,,166
2013-5-8,80,66,53,59,53,46,82,64,39,30.07,29.99,29.92,10,10,10,15,4,22,0.01,1,,147
2013-5-9,75,66,57,61,57,54,94,76,53,30.00,29.94,29.89,10,9,2,22,8,29,3.36,6,Thunderstorm,200
2013-5-10,68,62,55,59,55,50,94,80,64,30.06,29.98,29.90,10,9,1,17,7,25,2.85,6,Thunderstorm,337
2013-5-11,71,60,48,54,45,34,94,62,28,30.21,30.11,30.05,10,8,0,17,4,25,0.00,1,,344
2013-5-12,66,52,39,45,36,28,87,52,26,30.28,30.22,30.15,10,10,10,10,3,,0.00,1,,29
2013-5-13,78,63,48,55,47,41,82,57,35,30.17,30.12,30.05,10,10,10,17,7,23,0.00,1,,180
2013-5-14,84,73,62,57,52,46,64,48,32,30.09,30.03,29.97,10,10,10,16,9,22,0.00,0,,210
2013-5-15,73,68,62,64,58,48,94,71,49,30.01,29.97,29.87,10,10,7,17,8,23,0.27,3,Thunderstorm,182
2013-5-16,69,66,62,63,60,57,94,84,73,29.90,29.86,29.83,10,10,8,12,7,,0.01,6,,133
2013-5-17,80,68,55,63,60,54,94,73,51,29.94,29.90,29.86,10,9,0,6,2,,0.00,3,,156
2013-5-18,84,74,64,72,68,63,94,79,66,29.93,29.88,29.81,10,9,5,14,7,22,0.00,2,,146
2013-5-19,87,79,71,68,64,61,88,63,40,29.86,29.77,29.67,10,10,8,23,10,30,0.03,1,Thunderstorm,180
2013-5-20,78,69,60,68,63,57,94,76,65,29.86,29.78,29.71,10,10,4,44,9,61,0.45,5,Thunderstorm,169
2013-5-21,64,62,57,57,57,55,94,83,77,29.90,29.82,29.70,10,10,10,23,8,34,0.67,4,Thunderstorm,194
2013-5-22,73,63,53,57,55,52,94,74,53,29.95,29.87,29.80,10,8,0,15,6,22,0.00,2,,250
2013-5-23,73,64,55,59,56,52,94,73,57,30.15,30.06,29.95,10,10,10,13,3,,0.00,0,,26
2013-5-24,78,68,57,59,54,50,82,66,51,30.28,30.21,30.16,10,10,10,16,10,21,0.00,0,,104
2013-5-25,82,70,59,64,56,46,73,60,51,30.24,30.18,30.08,10,10,10,14,8,20,0.00,1,,164
2013-5-26,82,74,66,66,62,57,88,61,51,30.12,30.05,30.00,10,10,10,16,11,22,0.00,1,,188
2013-5-27,84,76,68,66,63,57,83,68,51,30.01,29.91,29.83,10,10,10,22,10,29,0.00,2,,182
2013-5-28,82,76,71,64,62,59,78,64,51,29.90,29.84,29.79,10,10,10,20,13,33,0.00,0,,185
2013-5-29,78,74,69,64,63,61,78,66,57,29.91,29.86,29.77,10,10,10,22,11,29,0.00,2,,170
2013-5-30,78,70,62,66,63,59,94,77,61,29.90,29.79,29.74,10,10,3,22,13,43,0.35,5,Thunderstorm,165
2013-5-31,84,73,62,72,67,57,88,76,62,29.83,29.78,29.67,10,10,9,17,10,32,0.00,4,,185